Time;durP1;ratioP1;P1;durP2;ratioP2;P2;SDS_P1;SDS_P2;PMS_P1;PMS_P2;Temp;Humidity;BMP_temperature;BMP_pressure;BME280_temperature;BME280_humidity;BME280_pressure;Samples;Min_cycle;Max_cycle;Signal;HPM_P1;HPM_P2
2022/11/30 00:01:23;;;;;;;;;;;6.30;99.90;;;;;;5034629;28;20481;-71
2022/11/30 00:03:55;;;;;;;;;;;6.30;99.90;;;;;;5034355;28;20248;-73
2022/11/30 00:06:25;;;;;;;;;;;6.30;99.90;;;;;;5033407;28;19928;-71
2022/11/30 00:08:53;;;;;;;;;;;6.30;99.90;;;;;;5022753;28;20325;-71
2022/11/30 00:11:25;;;;;;;;;;;6.30;99.90;;;;;;5027856;28;20088;-71
2022/11/30 00:13:55;;;;;;;;;;;6.30;99.90;;;;;;5036894;28;19932;-72
2022/11/30 00:16:26;;;;;;;;;;;6.30;99.90;;;;;;5031932;28;20234;-71
2022/11/30 00:18:52;;;;;;;;;;;6.30;99.90;;;;;;5029048;28;20634;-71
2022/11/30 00:21:21;;;;;;;;;;;6.30;99.90;;;;;;5066216;27;20768;-71
2022/11/30 00:23:54;;;;;;;;;;;6.30;99.90;;;;;;5032718;28;19928;-72
2022/11/30 00:26:23;;;;;;;;;;;6.30;99.90;;;;;;5024568;28;19933;-70
2022/11/30 00:28:50;;;;;;;;;;;6.30;99.90;;;;;;5035611;28;20350;-71
2022/11/30 00:31:18;;;;;;;;;;;6.30;99.90;;;;;;5030759;28;19928;-70
2022/11/30 00:33:45;;;;;;;;;;;6.30;99.90;;;;;;5034860;28;19928;-71
2022/11/30 00:36:13;;;;;;;;;;;6.20;99.90;;;;;;5030632;28;20022;-71
2022/11/30 00:38:40;;;;;;;;;;;6.30;99.90;;;;;;5033253;28;20564;-71
2022/11/30 00:41:10;;;;;;;;;;;6.20;99.90;;;;;;5036645;28;20034;-71
2022/11/30 00:43:38;;;;;;;;;;;6.20;99.90;;;;;;5025534;28;20593;-71
2022/11/30 00:46:05;;;;;;;;;;;6.20;99.90;;;;;;5033547;28;20345;-71
2022/11/30 00:48:32;;;;;;;;;;;6.20;99.90;;;;;;5030574;28;19935;-71
2022/11/30 00:51:00;;;;;;;;;;;6.20;99.90;;;;;;5032016;28;19930;-70
2022/11/30 00:53:34;;;;;;;;;;;6.20;99.90;;;;;;5028331;28;20598;-71
2022/11/30 00:56:00;;;;;;;;;;;6.20;99.90;;;;;;5033768;28;20305;-71
2022/11/30 00:58:27;;;;;;;;;;;6.20;99.90;;;;;;5029949;28;20605;-71
2022/11/30 01:00:57;;;;;;;;;;;6.20;99.90;;;;;;5030650;28;21276;-71
2022/11/30 01:03:24;;;;;;;;;;;6.20;99.90;;;;;;5030182;28;19932;-72
2022/11/30 01:05:51;;;;;;;;;;;6.20;99.90;;;;;;5031265;28;19928;-71
2022/11/30 01:08:19;;;;;;;;;;;6.20;99.90;;;;;;5032137;28;20027;-71
2022/11/30 01:10:46;;;;;;;;;;;6.20;99.90;;;;;;5029749;28;20132;-71
2022/11/30 01:13:13;;;;;;;;;;;6.20;99.90;;;;;;5028725;28;19928;-71
2022/11/30 01:15:48;;;;;;;;;;;6.20;99.90;;;;;;5054851;27;20445;-71
2022/11/30 01:18:19;;;;;;;;;;;6.20;99.90;;;;;;5027384;28;19932;-71
2022/11/30 01:20:52;;;;;;;;;;;6.20;99.90;;;;;;5030132;28;19928;-71
2022/11/30 01:23:22;;;;;;;;;;;6.20;99.90;;;;;;5027390;28;19939;-71
2022/11/30 01:25:55;;;;;;;;;;;6.10;99.90;;;;;;5031324;28;20331;-71
2022/11/30 01:28:24;;;;;;;;;;;6.10;99.90;;;;;;5022345;28;20478;-72
2022/11/30 01:30:57;;;;;;;;;;;6.20;99.90;;;;;;5033846;28;19935;-71
2022/11/30 01:33:26;;;;;;;;;;;6.10;99.90;;;;;;5031940;28;20352;-71
2022/11/30 01:36:04;;;;;;;;;;;6.20;99.90;;;;;;5022941;28;20209;-71
2022/11/30 01:38:34;;;;;;;;;;;6.20;99.90;;;;;;5034425;28;20509;-70
2022/11/30 01:41:01;;;;;;;;;;;6.20;99.90;;;;;;5037301;28;20303;-70
2022/11/30 01:43:42;;;;;;;;;;;6.10;99.90;;;;;;5033166;28;20059;-71
2022/11/30 01:46:28;;;;;;;;;;;6.10;99.90;;;;;;5028172;28;20382;-71
2022/11/30 01:49:04;;;;;;;;;;;6.10;99.90;;;;;;5031547;28;19955;-71
2022/11/30 01:51:34;;;;;;;;;;;6.10;99.90;;;;;;5031302;28;19936;-72
2022/11/30 01:54:02;;;;;;;;;;;6.10;99.90;;;;;;5027824;28;20019;-71
2022/11/30 01:56:29;;;;;;;;;;;6.10;99.90;;;;;;5029089;28;20313;-71
2022/11/30 01:58:56;;;;;;;;;;;6.10;99.90;;;;;;5034459;28;20503;-71
2022/11/30 02:01:29;;;;;;;;;;;6.10;99.90;;;;;;5022068;28;20106;-71
2022/11/30 02:04:04;;;;;;;;;;;6.10;99.90;;;;;;5030322;28;20234;-71
2022/11/30 02:06:35;;;;;;;;;;;6.10;99.90;;;;;;5033515;28;20409;-71
2022/11/30 02:11:50;;;;;;;;;;;6.10;99.90;;;;;;5023305;28;19924;-71
2022/11/30 02:14:23;;;;;;;;;;;6.10;99.90;;;;;;5033279;28;19936;-71
2022/11/30 02:17:01;;;;;;;;;;;6.10;99.90;;;;;;5036305;28;19928;-72
2022/11/30 02:19:47;;;;;;;;;;;6.10;99.90;;;;;;5032711;28;20605;-71
2022/11/30 02:22:22;;;;;;;;;;;6.10;99.90;;;;;;5022096;28;19929;-71
2022/11/30 02:24:58;;;;;;;;;;;6.10;99.90;;;;;;5071587;27;19932;-70
2022/11/30 02:27:38;;;;;;;;;;;6.10;99.90;;;;;;5038443;28;20027;-71
2022/11/30 02:30:09;;;;;;;;;;;6.10;99.90;;;;;;5026305;28;20675;-72
2022/11/30 02:32:39;;;;;;;;;;;6.10;99.90;;;;;;5034546;28;20034;-71
2022/11/30 02:35:09;;;;;;;;;;;6.10;99.90;;;;;;5030675;28;19932;-71
2022/11/30 02:37:37;;;;;;;;;;;6.10;99.90;;;;;;5016127;28;20210;-71
2022/11/30 02:40:09;;;;;;;;;;;6.00;99.90;;;;;;5026590;28;20009;-71
2022/11/30 02:42:36;;;;;;;;;;;6.00;99.90;;;;;;5037605;28;20260;-71
2022/11/30 02:45:06;;;;;;;;;;;6.00;99.90;;;;;;5021890;28;19940;-71
2022/11/30 02:47:37;;;;;;;;;;;6.00;99.90;;;;;;5018348;28;20185;-71
2022/11/30 02:50:13;;;;;;;;;;;6.00;99.90;;;;;;5017308;28;20078;-71
2022/11/30 02:52:42;;;;;;;;;;;6.00;99.90;;;;;;5032229;28;19954;-71
2022/11/30 02:55:27;;;;;;;;;;;6.00;99.90;;;;;;5017864;28;19958;-71
2022/11/30 02:57:54;;;;;;;;;;;6.00;99.90;;;;;;5029433;28;19934;-71
2022/11/30 03:00:24;;;;;;;;;;;6.00;99.90;;;;;;5017229;28;19928;-71
2022/11/30 03:02:53;;;;;;;;;;;6.00;99.90;;;;;;5019824;28;20278;-71
2022/11/30 03:05:22;;;;;;;;;;;6.00;99.90;;;;;;5022758;28;20227;-71
2022/11/30 03:07:50;;;;;;;;;;;6.00;99.90;;;;;;5022965;28;19939;-71
2022/11/30 03:10:17;;;;;;;;;;;6.00;99.90;;;;;;5020451;28;20121;-71
2022/11/30 03:12:44;;;;;;;;;;;6.00;99.90;;;;;;5018078;28;20179;-71
2022/11/30 03:15:13;;;;;;;;;;;6.00;99.90;;;;;;5018727;28;20420;-71
2022/11/30 03:17:42;;;;;;;;;;;6.00;99.90;;;;;;5023778;28;20268;-71
2022/11/30 03:20:11;;;;;;;;;;;6.00;99.90;;;;;;5015665;28;19936;-71
2022/11/30 03:22:38;;;;;;;;;;;6.00;99.90;;;;;;5023398;28;19929;-71
2022/11/30 03:25:10;;;;;;;;;;;6.00;99.90;;;;;;5053082;27;20365;-71
2022/11/30 03:27:40;;;;;;;;;;;5.90;99.90;;;;;;5021064;28;20164;-71
2022/11/30 03:30:07;;;;;;;;;;;5.90;99.90;;;;;;5025874;28;19928;-70
2022/11/30 03:32:34;;;;;;;;;;;5.90;99.90;;;;;;5032594;28;19967;-71
2022/11/30 03:35:01;;;;;;;;;;;5.90;99.90;;;;;;5036843;28;19928;-71
2022/11/30 03:37:29;;;;;;;;;;;5.90;99.90;;;;;;5033055;28;20184;-72
2022/11/30 03:39:56;;;;;;;;;;;5.90;99.90;;;;;;5021881;28;20492;-70
2022/11/30 03:42:28;;;;;;;;;;;5.90;99.90;;;;;;5030787;28;20654;-71
2022/11/30 03:44:55;;;;;;;;;;;5.90;99.90;;;;;;5029855;28;21130;-71
2022/11/30 03:47:22;;;;;;;;;;;5.90;99.90;;;;;;5017656;28;20130;-71
2022/11/30 03:49:52;;;;;;;;;;;5.90;99.90;;;;;;5021498;28;19932;-71
2022/11/30 03:52:22;;;;;;;;;;;5.90;99.90;;;;;;5017664;28;20571;-71
2022/11/30 03:54:54;;;;;;;;;;;5.90;99.90;;;;;;5019213;28;20485;-71
2022/11/30 03:57:21;;;;;;;;;;;5.90;99.90;;;;;;5021054;28;20255;-71
2022/11/30 03:59:50;;;;;;;;;;;5.90;99.90;;;;;;5020710;28;20005;-71
2022/11/30 04:02:23;;;;;;;;;;;5.90;99.90;;;;;;5020943;28;20116;-71
2022/11/30 04:04:50;;;;;;;;;;;5.90;99.90;;;;;;5024662;28;20376;-71
2022/11/30 04:07:17;;;;;;;;;;;5.90;99.90;;;;;;5019076;28;19975;-71
2022/11/30 04:09:44;;;;;;;;;;;5.90;99.90;;;;;;5016706;28;20014;-71
2022/11/30 04:12:14;;;;;;;;;;;5.80;99.90;;;;;;5020122;28;19936;-71
2022/11/30 04:14:41;;;;;;;;;;;5.80;99.90;;;;;;5022960;28;20114;-71
2022/11/30 04:17:11;;;;;;;;;;;5.90;99.90;;;;;;5021955;28;20087;-71
2022/11/30 04:19:38;;;;;;;;;;;5.80;99.90;;;;;;5023414;28;20170;-71
2022/11/30 04:22:05;;;;;;;;;;;5.80;99.90;;;;;;5021357;28;20247;-71
2022/11/30 04:24:33;;;;;;;;;;;5.80;99.90;;;;;;5033142;28;20377;-71
2022/11/30 04:27:04;;;;;;;;;;;5.90;99.90;;;;;;5034619;28;20051;-71
2022/11/30 04:29:39;;;;;;;;;;;5.80;99.90;;;;;;5028647;28;19939;-71
2022/11/30 04:32:09;;;;;;;;;;;5.80;99.90;;;;;;5037113;28;20402;-72
2022/11/30 04:34:40;;;;;;;;;;;5.80;99.90;;;;;;5026744;28;19929;-71
2022/11/30 04:37:07;;;;;;;;;;;5.80;99.90;;;;;;5010630;28;19974;-71
2022/11/30 04:39:39;;;;;;;;;;;5.80;99.90;;;;;;5019479;28;19936;-71
2022/11/30 04:42:07;;;;;;;;;;;5.80;99.90;;;;;;5061018;27;19939;-72
2022/11/30 04:44:36;;;;;;;;;;;5.80;99.90;;;;;;5027166;28;19964;-75
2022/11/30 04:47:05;;;;;;;;;;;5.80;99.90;;;;;;5024921;28;20338;-71
2022/11/30 04:49:33;;;;;;;;;;;5.80;99.90;;;;;;5030689;28;20084;-72
2022/11/30 04:52:02;;;;;;;;;;;5.80;99.90;;;;;;5033283;28;19955;-71
2022/11/30 04:54:29;;;;;;;;;;;5.80;99.90;;;;;;5032718;28;20139;-71
2022/11/30 04:56:56;;;;;;;;;;;5.80;99.90;;;;;;5041554;28;20140;-71
2022/11/30 04:59:27;;;;;;;;;;;5.80;99.90;;;;;;5039185;28;19964;-77
2022/11/30 05:02:08;;;;;;;;;;;5.70;99.90;;;;;;5029674;28;20373;-72
2022/11/30 05:04:37;;;;;;;;;;;5.70;99.90;;;;;;5031453;28;20173;-71
2022/11/30 05:07:07;;;;;;;;;;;5.70;99.90;;;;;;5031638;28;19933;-71
2022/11/30 05:09:41;;;;;;;;;;;5.70;99.90;;;;;;5028692;28;20185;-71
2022/11/30 05:12:08;;;;;;;;;;;5.70;99.90;;;;;;5040009;28;20029;-71
2022/11/30 05:14:35;;;;;;;;;;;5.70;99.90;;;;;;5024695;28;19928;-71
2022/11/30 05:17:05;;;;;;;;;;;5.70;99.90;;;;;;5053726;28;19929;-71
2022/11/30 05:19:36;;;;;;;;;;;5.70;99.90;;;;;;5026854;28;19925;-72
2022/11/30 05:22:03;;;;;;;;;;;5.80;99.90;;;;;;5028164;28;19936;-71
2022/11/30 05:24:31;;;;;;;;;;;5.70;99.90;;;;;;5030156;28;20045;-71
2022/11/30 05:27:02;;;;;;;;;;;5.70;99.90;;;;;;5036492;28;19929;-71
2022/11/30 05:29:41;;;;;;;;;;;5.70;99.90;;;;;;5060623;27;20344;-72
2022/11/30 05:32:11;;;;;;;;;;;5.70;99.90;;;;;;5031977;28;20588;-72
2022/11/30 05:34:56;;;;;;;;;;;5.70;99.90;;;;;;5027909;28;20039;-71
2022/11/30 05:37:32;;;;;;;;;;;5.70;99.90;;;;;;5026276;28;20138;-71
2022/11/30 05:40:02;;;;;;;;;;;5.70;99.90;;;;;;5022071;28;20239;-71
2022/11/30 05:42:32;;;;;;;;;;;5.70;99.90;;;;;;5035353;28;20708;-74
2022/11/30 05:47:50;;;;;;;;;;;5.70;99.90;;;;;;5052940;27;20115;-73
2022/11/30 05:50:17;;;;;;;;;;;5.70;99.90;;;;;;5066909;28;20039;-75
2022/11/30 05:52:49;;;;;;;;;;;5.70;99.90;;;;;;5040187;28;19928;-71
2022/11/30 05:55:18;;;;;;;;;;;5.70;99.90;;;;;;5021964;28;20409;-71
2022/11/30 05:57:46;;;;;;;;;;;5.70;99.90;;;;;;5027277;28;20069;-71
2022/11/30 06:00:14;;;;;;;;;;;5.70;99.90;;;;;;5018425;28;20056;-77
2022/11/30 06:02:40;;;;;;;;;;;5.70;99.90;;;;;;5037611;28;19933;-72
2022/11/30 06:05:13;;;;;;;;;;;5.60;99.90;;;;;;5023500;28;20074;-71
2022/11/30 06:07:40;;;;;;;;;;;5.70;99.90;;;;;;5016711;28;20437;-71
2022/11/30 06:10:09;;;;;;;;;;;5.60;99.90;;;;;;5020313;28;19947;-73
2022/11/30 06:12:39;;;;;;;;;;;5.60;99.90;;;;;;5023326;28;19929;-71
2022/11/30 06:15:08;;;;;;;;;;;5.60;99.90;;;;;;5019811;28;20059;-71
2022/11/30 06:17:45;;;;;;;;;;;5.60;99.90;;;;;;5027556;28;20227;-71
2022/11/30 06:20:13;;;;;;;;;;;5.60;99.90;;;;;;5008761;28;20182;-71
2022/11/30 06:22:42;;;;;;;;;;;5.60;99.90;;;;;;5022439;28;20134;-71
2022/11/30 06:25:14;;;;;;;;;;;5.60;99.90;;;;;;5019582;28;20586;-71
2022/11/30 06:27:44;;;;;;;;;;;5.60;99.90;;;;;;5023166;28;20401;-71
2022/11/30 06:30:12;;;;;;;;;;;5.60;99.90;;;;;;5020067;28;19933;-71
2022/11/30 06:32:47;;;;;;;;;;;5.60;99.90;;;;;;5027966;28;20110;-71
2022/11/30 06:35:14;;;;;;;;;;;5.60;99.90;;;;;;5021248;28;20090;-71
2022/11/30 06:37:41;;;;;;;;;;;5.60;99.90;;;;;;5018813;28;20317;-71
2022/11/30 06:40:09;;;;;;;;;;;5.60;99.90;;;;;;5024633;28;20305;-72
2022/11/30 06:42:43;;;;;;;;;;;5.60;99.90;;;;;;5027153;28;20093;-72
2022/11/30 06:45:13;;;;;;;;;;;5.60;99.90;;;;;;5021863;28;19939;-71
2022/11/30 06:47:43;;;;;;;;;;;5.60;99.90;;;;;;5039784;28;20296;-72
2022/11/30 06:50:10;;;;;;;;;;;5.60;99.90;;;;;;5026833;28;20052;-71
2022/11/30 06:52:37;;;;;;;;;;;5.50;99.90;;;;;;5021822;28;20354;-71
2022/11/30 06:55:06;;;;;;;;;;;5.60;99.90;;;;;;5022536;28;20425;-71
2022/11/30 06:57:33;;;;;;;;;;;5.50;99.90;;;;;;5025286;28;20116;-71
2022/11/30 07:00:03;;;;;;;;;;;5.50;99.90;;;;;;5019751;28;19928;-71
2022/11/30 07:02:30;;;;;;;;;;;5.50;99.90;;;;;;5017013;28;20261;-71
2022/11/30 07:04:57;;;;;;;;;;;5.50;99.90;;;;;;5027137;28;19935;-72
2022/11/30 07:07:24;;;;;;;;;;;5.50;99.90;;;;;;5015592;28;20079;-71
2022/11/30 07:09:57;;;;;;;;;;;5.50;99.90;;;;;;5028567;28;21015;-79
2022/11/30 07:12:26;;;;;;;;;;;5.50;99.90;;;;;;5029379;28;19974;-71
2022/11/30 07:14:55;;;;;;;;;;;5.50;99.90;;;;;;5021552;28;20305;-71
2022/11/30 07:17:27;;;;;;;;;;;5.50;99.90;;;;;;5031805;28;20023;-71
2022/11/30 07:19:54;;;;;;;;;;;5.50;99.90;;;;;;5020275;28;19975;-71
2022/11/30 07:22:26;;;;;;;;;;;5.50;99.90;;;;;;5029752;28;20483;-70
2022/11/30 07:27:44;;;;;;;;;;;5.50;99.90;;;;;;5028164;28;19951;-71
2022/11/30 07:30:14;;;;;;;;;;;5.50;99.90;;;;;;5025195;28;20561;-71
2022/11/30 07:32:48;;;;;;;;;;;5.50;99.90;;;;;;5029800;28;20006;-72
2022/11/30 07:35:16;;;;;;;;;;;5.50;99.90;;;;;;5027167;28;20178;-71
2022/11/30 07:37:45;;;;;;;;;;;5.50;99.90;;;;;;5027356;28;19929;-72
2022/11/30 07:40:16;;;;;;;;;;;5.50;99.90;;;;;;5022602;28;19928;-72
2022/11/30 07:42:43;;;;;;;;;;;5.50;99.90;;;;;;5028374;28;19928;-72
2022/11/30 07:45:10;;;;;;;;;;;5.50;99.90;;;;;;5015482;28;20078;-71
2022/11/30 07:47:37;;;;;;;;;;;5.40;99.90;;;;;;5025970;28;19940;-71
2022/11/30 07:50:14;;;;;;;;;;;5.40;99.90;;;;;;5054553;28;19928;-70
2022/11/30 07:52:41;;;;;;;;;;;5.40;99.90;;;;;;5035377;28;20126;-71
2022/11/30 07:55:08;;;;;;;;;;;5.40;99.90;;;;;;5025345;28;19928;-71
2022/11/30 07:57:35;;;;;;;;;;;5.40;99.90;;;;;;5030512;28;20079;-71
2022/11/30 08:00:03;;;;;;;;;;;5.40;99.90;;;;;;5029628;28;20453;-71
2022/11/30 08:02:39;;;;;;;;;;;5.40;99.90;;;;;;5032799;28;19928;-71
2022/11/30 08:05:14;;;;;;;;;;;5.40;99.90;;;;;;5037947;28;20219;-72
2022/11/30 08:07:41;;;;;;;;;;;5.40;99.90;;;;;;5025906;28;20148;-71
2022/11/30 08:10:09;;;;;;;;;;;5.40;99.90;;;;;;5031719;28;20037;-72
2022/11/30 08:12:43;;;;;;;;;;;5.40;99.90;;;;;;5028196;28;19939;-71
2022/11/30 08:15:11;;;;;;;;;;;5.50;99.90;;;;;;5030730;28;19936;-71
2022/11/30 08:17:41;;;;;;;;;;;5.40;99.90;;;;;;5032258;28;20103;-72
2022/11/30 08:20:10;;;;;;;;;;;5.50;99.90;;;;;;5034226;28;20397;-71
2022/11/30 08:22:37;;;;;;;;;;;5.40;99.90;;;;;;5030805;28;20495;-71
2022/11/30 08:25:07;;;;;;;;;;;5.40;99.90;;;;;;5027544;28;19928;-71
2022/11/30 08:27:40;;;;;;;;;;;5.40;99.90;;;;;;5027667;28;20194;-71
2022/11/30 08:30:08;;;;;;;;;;;5.40;99.90;;;;;;5026154;28;19978;-71
2022/11/30 08:32:43;;;;;;;;;;;5.40;99.90;;;;;;5029031;28;19928;-72
2022/11/30 08:35:22;;;;;;;;;;;5.40;99.90;;;;;;5028874;28;20338;-72
2022/11/30 08:38:00;;;;;;;;;;;5.40;99.90;;;;;;5030764;28;20473;-71
2022/11/30 08:40:34;;;;;;;;;;;5.40;99.90;;;;;;5027198;28;19928;-72
2022/11/30 08:43:10;;;;;;;;;;;5.40;99.90;;;;;;5029960;28;19959;-71
2022/11/30 08:45:50;;;;;;;;;;;5.40;99.90;;;;;;5027937;28;20030;-73
2022/11/30 08:48:32;;;;;;;;;;;5.40;99.90;;;;;;5029947;28;19962;-72
2022/11/30 08:51:01;;;;;;;;;;;5.40;99.90;;;;;;5030126;28;19928;-71
2022/11/30 08:53:30;;;;;;;;;;;5.40;99.90;;;;;;5029928;28;19929;-71
2022/11/30 08:55:57;;;;;;;;;;;5.40;99.90;;;;;;5034637;28;19929;-71
2022/11/30 08:58:27;;;;;;;;;;;5.40;99.90;;;;;;5029285;28;20055;-71
2022/11/30 09:01:01;;;;;;;;;;;5.40;99.90;;;;;;5031126;28;20101;-72
2022/11/30 09:03:28;;;;;;;;;;;5.30;99.90;;;;;;5037231;28;20015;-71
2022/11/30 09:05:55;;;;;;;;;;;5.40;99.90;;;;;;5026733;28;19951;-71
2022/11/30 09:08:25;;;;;;;;;;;5.40;99.90;;;;;;5025269;28;19987;-71
2022/11/30 09:10:52;;;;;;;;;;;5.40;99.90;;;;;;5029349;28;20122;-71
2022/11/30 09:13:19;;;;;;;;;;;5.40;99.90;;;;;;5031489;28;19932;-72
2022/11/30 09:15:53;;;;;;;;;;;5.40;99.90;;;;;;5021924;28;20141;-70
2022/11/30 09:18:20;;;;;;;;;;;5.30;99.90;;;;;;5029704;28;20191;-71
2022/11/30 09:20:50;;;;;;;;;;;5.40;99.90;;;;;;5029661;28;19928;-71
2022/11/30 09:23:17;;;;;;;;;;;5.40;99.90;;;;;;5057570;27;20029;-71
2022/11/30 09:25:45;;;;;;;;;;;5.40;99.90;;;;;;5026063;28;19929;-71
2022/11/30 09:28:13;;;;;;;;;;;5.40;99.90;;;;;;5024087;28;20043;-71
2022/11/30 09:30:43;;;;;;;;;;;5.40;99.90;;;;;;5024780;28;20111;-72
2022/11/30 09:33:09;;;;;;;;;;;5.40;99.90;;;;;;5025531;28;19954;-71
2022/11/30 09:35:37;;;;;;;;;;;5.40;99.90;;;;;;5031299;28;19959;-74
2022/11/30 09:38:04;;;;;;;;;;;5.40;99.90;;;;;;5057348;28;19997;-72
2022/11/30 09:40:37;;;;;;;;;;;5.40;99.90;;;;;;5026599;28;20032;-72
2022/11/30 09:43:16;;;;;;;;;;;5.30;99.90;;;;;;5030894;28;20427;-71
2022/11/30 09:45:54;;;;;;;;;;;5.30;99.90;;;;;;5034510;28;20147;-71
2022/11/30 09:48:33;;;;;;;;;;;5.30;99.90;;;;;;5029080;28;20993;-71
2022/11/30 09:51:07;;;;;;;;;;;5.30;99.90;;;;;;5025306;28;20794;-70
2022/11/30 09:53:40;;;;;;;;;;;5.30;99.90;;;;;;5035093;28;19936;-70
2022/11/30 09:59:16;;;;;;;;;;;5.30;99.90;;;;;;5005799;28;19928;-72
2022/11/30 10:01:50;;;;;;;;;;;5.30;99.90;;;;;;5034530;28;19959;-73
2022/11/30 10:04:21;;;;;;;;;;;5.30;99.90;;;;;;5027204;28;19936;-71
2022/11/30 10:06:54;;;;;;;;;;;5.30;99.90;;;;;;5027993;28;19928;-72
2022/11/30 10:09:49;;;;;;;;;;;5.30;99.90;;;;;;5022915;28;19928;-71
2022/11/30 10:12:25;;;;;;;;;;;5.30;99.90;;;;;;5028433;28;20457;-72
2022/11/30 10:15:08;;;;;;;;;;;5.30;99.90;;;;;;5027365;28;20266;-72
2022/11/30 10:17:44;;;;;;;;;;;5.30;99.90;;;;;;5021987;28;20456;-70
2022/11/30 10:20:29;;;;;;;;;;;5.20;99.90;;;;;;5030160;28;19928;-71
2022/11/30 10:23:05;;;;;;;;;;;5.40;99.90;;;;;;5032076;28;19936;-71
2022/11/30 10:25:35;;;;;;;;;;;5.40;99.90;;;;;;5035655;28;19928;-71
2022/11/30 10:28:16;;;;;;;;;;;5.40;99.90;;;;;;5024556;28;20111;-72
2022/11/30 10:30:45;;;;;;;;;;;5.40;99.90;;;;;;5030220;28;19951;-71
2022/11/30 10:33:17;;;;;;;;;;;5.40;99.90;;;;;;5026210;28;20093;-71
2022/11/30 10:35:52;;;;;;;;;;;5.40;99.90;;;;;;5029247;28;20056;-72
2022/11/30 10:38:22;;;;;;;;;;;5.40;99.90;;;;;;5026613;28;20201;-71
2022/11/30 10:40:55;;;;;;;;;;;5.40;99.90;;;;;;5060623;28;19939;-71
2022/11/30 10:43:37;;;;;;;;;;;5.40;99.90;;;;;;5026748;28;20443;-71
2022/11/30 10:46:19;;;;;;;;;;;5.40;99.90;;;;;;5037865;28;19954;-71
2022/11/30 10:49:01;;;;;;;;;;;5.40;99.90;;;;;;5030818;28;19929;-72
2022/11/30 10:51:35;;;;;;;;;;;5.40;99.90;;;;;;5033752;28;20288;-71
2022/11/30 10:54:05;;;;;;;;;;;5.40;99.90;;;;;;5040103;28;19937;-71
2022/11/30 10:56:35;;;;;;;;;;;5.40;99.90;;;;;;5038067;28;20082;-75
2022/11/30 10:59:15;;;;;;;;;;;5.40;99.90;;;;;;5031631;28;19939;-71
2022/11/30 11:01:46;;;;;;;;;;;5.40;99.90;;;;;;5039160;28;20378;-71
2022/11/30 11:04:24;;;;;;;;;;;5.40;99.90;;;;;;5038583;28;19975;-71
2022/11/30 11:06:56;;;;;;;;;;;5.40;99.90;;;;;;5026654;28;19928;-71
2022/11/30 11:09:45;;;;;;;;;;;5.40;99.90;;;;;;5034759;28;20163;-71
2022/11/30 11:12:25;;;;;;;;;;;5.40;99.90;;;;;;5032928;28;20201;-71
2022/11/30 11:15:07;;;;;;;;;;;5.40;99.90;;;;;;5034622;28;20403;-72
2022/11/30 11:17:41;;;;;;;;;;;5.40;99.90;;;;;;5034158;28;20308;-71
2022/11/30 11:20:26;;;;;;;;;;;5.40;99.90;;;;;;5031569;28;20045;-71
2022/11/30 11:22:57;;;;;;;;;;;5.40;99.90;;;;;;5031255;28;19932;-72
2022/11/30 11:28:19;;;;;;;;;;;5.40;99.90;;;;;;5031093;28;20188;-71
2022/11/30 11:30:49;;;;;;;;;;;5.40;99.90;;;;;;5036043;28;20121;-72
2022/11/30 11:33:22;;;;;;;;;;;5.40;99.90;;;;;;5026800;28;20278;-73
2022/11/30 11:35:50;;;;;;;;;;;5.40;99.90;;;;;;5031124;28;20466;-71
2022/11/30 11:38:37;;;;;;;;;;;5.30;99.90;;;;;;5050056;28;20288;-71
2022/11/30 11:41:06;;;;;;;;;;;5.40;99.90;;;;;;5034883;28;20051;-72
2022/11/30 11:43:54;;;;;;;;;;;5.40;99.90;;;;;;5033224;28;20024;-71
2022/11/30 11:46:29;;;;;;;;;;;5.40;99.90;;;;;;5032472;28;19928;-70
2022/11/30 11:49:01;;;;;;;;;;;5.40;99.90;;;;;;5034219;28;20569;-71
2022/11/30 11:51:37;;;;;;;;;;;5.50;99.90;;;;;;5037269;28;19932;-71
2022/11/30 11:54:16;;;;;;;;;;;5.40;99.90;;;;;;5029486;28;19928;-70
2022/11/30 11:56:46;;;;;;;;;;;5.40;99.90;;;;;;5032152;28;20420;-71
2022/11/30 11:59:21;;;;;;;;;;;5.40;99.90;;;;;;5063879;27;20116;-71
2022/11/30 12:01:59;;;;;;;;;;;5.40;99.90;;;;;;5033896;28;19955;-72
2022/11/30 12:04:44;;;;;;;;;;;5.40;99.90;;;;;;5030230;28;19928;-71
2022/11/30 12:07:28;;;;;;;;;;;5.40;99.90;;;;;;5027699;28;19936;-71
2022/11/30 12:10:01;;;;;;;;;;;5.40;99.90;;;;;;5030658;28;19970;-71
2022/11/30 12:12:39;;;;;;;;;;;5.50;99.90;;;;;;5029836;28;19934;-71
2022/11/30 12:15:09;;;;;;;;;;;5.40;99.90;;;;;;5029572;28;20106;-70
2022/11/30 12:17:40;;;;;;;;;;;5.40;99.90;;;;;;5023879;28;20136;-70
2022/11/30 12:20:17;;;;;;;;;;;5.40;99.90;;;;;;5033981;28;19967;-71
2022/11/30 12:22:54;;;;;;;;;;;5.50;99.90;;;;;;5037115;28;19927;-71
2022/11/30 12:25:25;;;;;;;;;;;5.40;99.90;;;;;;5031282;28;20117;-71
2022/11/30 12:28:09;;;;;;;;;;;5.50;99.90;;;;;;5036581;28;19928;-71
2022/11/30 12:30:43;;;;;;;;;;;5.50;99.90;;;;;;5030666;28;19935;-71
2022/11/30 12:33:25;;;;;;;;;;;5.50;99.90;;;;;;5026157;28;19928;-72
2022/11/30 12:36:03;;;;;;;;;;;5.50;99.90;;;;;;5036179;28;20194;-71
2022/11/30 12:38:52;;;;;;;;;;;5.40;99.90;;;;;;5030370;28;19928;-71
2022/11/30 12:41:30;;;;;;;;;;;5.50;99.90;;;;;;5033459;28;19940;-71
2022/11/30 12:44:11;;;;;;;;;;;5.50;99.90;;;;;;5034814;28;20339;-70
2022/11/30 12:46:55;;;;;;;;;;;5.50;99.90;;;;;;5033744;28;19933;-71
2022/11/30 12:49:31;;;;;;;;;;;5.50;99.90;;;;;;5033556;28;20187;-71
2022/11/30 12:52:01;;;;;;;;;;;5.50;99.90;;;;;;5032657;28;20134;-71
2022/11/30 12:54:33;;;;;;;;;;;5.50;99.90;;;;;;5031388;28;19932;-71
2022/11/30 12:57:07;;;;;;;;;;;5.50;99.90;;;;;;5026200;28;20326;-71
2022/11/30 12:59:43;;;;;;;;;;;5.50;99.90;;;;;;5026603;28;20333;-71
2022/11/30 13:02:26;;;;;;;;;;;5.50;99.90;;;;;;5058768;27;19935;-71
2022/11/30 13:04:54;;;;;;;;;;;5.50;99.90;;;;;;5023845;28;20025;-70
2022/11/30 13:07:27;;;;;;;;;;;5.50;99.90;;;;;;5024234;28;20322;-70
2022/11/30 13:09:57;;;;;;;;;;;5.50;99.90;;;;;;5026184;28;19928;-71
2022/11/30 13:12:26;;;;;;;;;;;5.50;99.90;;;;;;5019419;28;20304;-70
2022/11/30 13:15:00;;;;;;;;;;;5.40;99.90;;;;;;5025084;28;19982;-71
2022/11/30 13:17:30;;;;;;;;;;;5.50;99.90;;;;;;5021071;28;19951;-71
2022/11/30 13:20:07;;;;;;;;;;;5.50;99.90;;;;;;5027013;28;19928;-70
2022/11/30 13:22:41;;;;;;;;;;;5.50;99.90;;;;;;5029130;28;20923;-71
2022/11/30 13:25:18;;;;;;;;;;;5.50;99.90;;;;;;5021750;28;20378;-71
2022/11/30 13:27:50;;;;;;;;;;;5.50;99.90;;;;;;5031132;28;20493;-71
2022/11/30 13:30:20;;;;;;;;;;;5.50;99.90;;;;;;5026696;28;20065;-71
2022/11/30 13:32:50;;;;;;;;;;;5.50;99.90;;;;;;5025668;28;20099;-71
2022/11/30 13:35:42;;;;;;;;;;;5.50;99.90;;;;;;5035300;28;20205;-71
2022/11/30 13:38:22;;;;;;;;;;;5.50;99.90;;;;;;5023129;28;19928;-71
2022/11/30 13:41:09;;;;;;;;;;;5.50;99.90;;;;;;5023822;28;20964;-71
2022/11/30 13:43:41;;;;;;;;;;;5.50;99.90;;;;;;5024759;28;20168;-71
2022/11/30 13:46:16;;;;;;;;;;;5.50;99.90;;;;;;5026077;28;20791;-70
2022/11/30 13:48:48;;;;;;;;;;;5.50;99.90;;;;;;5063968;27;21761;-71
2022/11/30 13:51:31;;;;;;;;;;;5.50;99.90;;;;;;5025479;28;19935;-71
2022/11/30 13:54:25;;;;;;;;;;;5.50;99.90;;;;;;5024445;28;20135;-70
2022/11/30 13:56:55;;;;;;;;;;;5.50;99.90;;;;;;5027344;28;19963;-71
2022/11/30 13:59:34;;;;;;;;;;;5.50;99.90;;;;;;5019407;28;20264;-71
2022/11/30 14:02:20;;;;;;;;;;;5.50;99.90;;;;;;5018049;28;20588;-71
2022/11/30 14:04:48;;;;;;;;;;;5.50;99.90;;;;;;5059281;27;19955;-70
2022/11/30 14:07:29;;;;;;;;;;;5.50;99.90;;;;;;5026157;28;19932;-71
2022/11/30 14:09:59;;;;;;;;;;;5.50;99.90;;;;;;5024911;28;20260;-71
2022/11/30 14:12:49;;;;;;;;;;;5.50;99.90;;;;;;5017596;28;19929;-71
2022/11/30 14:15:35;;;;;;;;;;;5.50;99.90;;;;;;5031007;28;19936;-71
2022/11/30 14:18:15;;;;;;;;;;;5.50;99.90;;;;;;5062729;28;20152;-71
2022/11/30 14:20:45;;;;;;;;;;;5.50;99.90;;;;;;5031086;28;20436;-71
2022/11/30 14:23:14;;;;;;;;;;;5.50;99.90;;;;;;5028769;28;19934;-71
2022/11/30 14:25:48;;;;;;;;;;;5.50;99.90;;;;;;5028980;28;20420;-71
2022/11/30 14:28:22;;;;;;;;;;;5.50;99.90;;;;;;5033273;28;20049;-71
2022/11/30 14:30:50;;;;;;;;;;;5.50;99.90;;;;;;5033862;28;20241;-72
2022/11/30 14:33:21;;;;;;;;;;;5.50;99.90;;;;;;5034396;28;20064;-71
2022/11/30 14:35:55;;;;;;;;;;;5.50;99.90;;;;;;5037974;28;20085;-71
2022/11/30 14:38:30;;;;;;;;;;;5.50;99.90;;;;;;5030106;28;20295;-71
2022/11/30 14:40:58;;;;;;;;;;;5.50;99.90;;;;;;5035518;28;20565;-71
2022/11/30 14:43:26;;;;;;;;;;;5.60;99.90;;;;;;5027115;28;19987;-71
2022/11/30 14:45:57;;;;;;;;;;;5.50;99.90;;;;;;5030298;28;20025;-71
2022/11/30 14:48:26;;;;;;;;;;;5.60;99.90;;;;;;5028238;28;19936;-71
2022/11/30 14:50:59;;;;;;;;;;;5.50;99.90;;;;;;5018261;28;20248;-72
2022/11/30 14:53:31;;;;;;;;;;;5.50;99.90;;;;;;5030880;28;20005;-71
2022/11/30 14:56:00;;;;;;;;;;;5.50;99.90;;;;;;5037133;28;20510;-70
2022/11/30 14:58:32;;;;;;;;;;;5.50;99.90;;;;;;5033588;28;20201;-71
2022/11/30 15:01:06;;;;;;;;;;;5.50;99.90;;;;;;5026855;28;20050;-71
2022/11/30 15:03:38;;;;;;;;;;;5.50;99.90;;;;;;5032859;28;20071;-70
2022/11/30 15:06:06;;;;;;;;;;;5.50;99.90;;;;;;5035757;28;20211;-72
2022/11/30 15:08:37;;;;;;;;;;;5.50;99.90;;;;;;5020225;28;20458;-71
2022/11/30 15:11:05;;;;;;;;;;;5.50;99.90;;;;;;5035873;28;20105;-71
2022/11/30 15:13:37;;;;;;;;;;;5.50;99.90;;;;;;5033050;28;20522;-71